createdAt,value
2018-05-21T00:01:55.932Z,19.64
2018-05-21T00:04:23.552Z,19.57
2018-05-21T00:06:51.199Z,19.50
2018-05-21T00:09:18.792Z,19.65
2018-05-21T00:11:46.488Z,19.54
2018-05-21T00:14:14.474Z,19.58
2018-05-21T00:16:44.116Z,19.58
2018-05-21T00:19:11.730Z,19.58
2018-05-21T00:21:39.473Z,19.47
2018-05-21T00:24:07.063Z,19.45
2018-05-21T00:26:34.708Z,19.34
2018-05-21T00:29:02.529Z,19.31
2018-05-21T00:31:30.222Z,19.37
2018-05-21T00:33:57.957Z,19.33
2018-05-21T00:36:28.886Z,19.23
2018-05-21T00:39:00.993Z,19.18
2018-05-21T00:41:31.833Z,19.11
2018-05-21T00:43:59.608Z,19.12
2018-05-21T00:46:33.545Z,19.08
2018-05-21T00:49:01.249Z,19.08
2018-05-21T00:51:28.893Z,19.16
2018-05-21T00:53:56.834Z,19.10
2018-05-21T00:56:24.465Z,19.17
2018-05-21T00:58:52.099Z,19.00
2018-05-21T01:01:19.848Z,19.12
2018-05-21T01:03:50.704Z,19.20
2018-05-21T01:06:18.473Z,19.23
2018-05-21T01:08:46.572Z,19.21
2018-05-21T01:11:14.240Z,19.11
2018-05-21T01:13:42.348Z,19.12
2018-05-21T01:16:10.032Z,19.10
2018-05-21T01:18:37.620Z,19.08
2018-05-21T01:21:05.331Z,19.17
2018-05-21T01:23:33.163Z,19.22
2018-05-21T01:26:00.856Z,19.28
2018-05-21T01:28:28.475Z,19.33
2018-05-21T01:30:56.331Z,19.35
2018-05-21T01:33:24.053Z,19.28
2018-05-21T01:35:51.699Z,19.30
2018-05-21T01:38:19.833Z,19.23
2018-05-21T01:40:47.439Z,19.17
2018-05-21T01:43:15.071Z,19.17
2018-05-21T01:45:42.888Z,19.16
2018-05-21T01:48:10.556Z,19.16
2018-05-21T01:50:38.235Z,19.14
2018-05-21T01:53:06.056Z,19.14
2018-05-21T01:55:33.891Z,19.09
2018-05-21T01:58:05.399Z,19.16
2018-05-21T02:00:33.152Z,19.16
2018-05-21T02:03:00.881Z,19.11
2018-05-21T02:05:28.492Z,19.04
2018-05-21T02:07:56.677Z,19.09
2018-05-21T02:10:24.269Z,19.10
2018-05-21T02:12:55.183Z,19.04
2018-05-21T02:15:23.059Z,18.99
2018-05-21T02:17:50.697Z,18.99
2018-05-21T02:20:18.371Z,18.92
2018-05-21T02:22:46.183Z,18.78
2018-05-21T02:25:13.837Z,18.32
2018-05-21T02:27:41.512Z,18.30
2018-05-21T02:30:09.219Z,18.39
2018-05-21T02:32:40.361Z,18.31
2018-05-21T02:35:07.995Z,18.41
2018-05-21T02:37:35.833Z,18.61
2018-05-21T02:40:03.610Z,18.74
2018-05-21T02:42:31.202Z,18.82
2018-05-21T02:45:00.372Z,18.82
2018-05-21T02:47:27.984Z,18.77
2018-05-21T02:49:55.592Z,18.70
2018-05-21T02:52:40.789Z,18.77
2018-05-21T02:55:08.521Z,18.80
2018-05-21T02:57:36.203Z,18.88
2018-05-21T03:00:03.897Z,18.93
2018-05-21T03:02:31.509Z,18.89
2018-05-21T03:04:59.178Z,18.88
2018-05-21T03:07:33.480Z,18.89
2018-05-21T03:10:04.555Z,18.97
2018-05-21T03:12:32.175Z,19.04
2018-05-21T03:14:59.853Z,19.13
2018-05-21T03:17:27.535Z,19.14
2018-05-21T03:19:55.157Z,19.16
2018-05-21T03:22:23.336Z,19.16
2018-05-21T03:24:51.072Z,19.22
2018-05-21T03:27:18.722Z,19.35
2018-05-21T03:29:46.427Z,19.50
2018-05-21T03:32:14.073Z,19.60
2018-05-21T03:34:41.819Z,19.67
2018-05-21T03:37:09.613Z,19.57
2018-05-21T03:39:37.215Z,19.31
2018-05-21T03:42:05.922Z,18.85
2018-05-21T03:44:34.116Z,18.50
2018-05-21T03:47:01.854Z,18.61
2018-05-21T03:49:29.911Z,18.52
2018-05-21T03:51:57.793Z,18.67
2018-05-21T03:54:26.522Z,18.54
2018-05-21T03:56:54.179Z,18.46
2018-05-21T03:59:33.889Z,18.27
2018-05-21T04:02:13.156Z,18.26
2018-05-21T04:04:40.922Z,18.20
2018-05-21T04:07:09.544Z,18.21
2018-05-21T04:09:37.202Z,18.18
2018-05-21T04:12:05.326Z,18.17
2018-05-21T04:14:36.606Z,18.21
2018-05-21T04:17:04.256Z,18.14
2018-05-21T04:19:31.955Z,18.11
2018-05-21T04:21:59.631Z,18.17
2018-05-21T04:24:27.291Z,18.22
2018-05-21T04:26:54.991Z,18.15
2018-05-21T04:29:23.651Z,18.22
2018-05-21T04:31:55.456Z,18.30
2018-05-21T04:34:23.090Z,18.40
2018-05-21T04:36:50.694Z,18.61
2018-05-21T04:39:18.325Z,18.74
2018-05-21T04:41:45.959Z,18.77
2018-05-21T04:44:13.635Z,18.77
2018-05-21T04:46:41.348Z,18.99
2018-05-21T04:49:08.933Z,19.02
2018-05-21T04:51:36.628Z,19.37
2018-05-21T04:54:11.786Z,19.51
2018-05-21T04:56:39.524Z,19.70
2018-05-21T04:59:07.200Z,19.93
2018-05-21T05:01:34.944Z,20.13
2018-05-21T05:04:06.429Z,20.37
2018-05-21T05:06:37.291Z,20.59
2018-05-21T05:09:04.994Z,20.80
2018-05-21T05:11:38.327Z,20.96
2018-05-21T05:14:06.097Z,20.97
2018-05-21T05:16:38.111Z,21.17
2018-05-21T05:19:06.023Z,21.39
2018-05-21T05:21:37.151Z,21.35
2018-05-21T05:24:10.763Z,21.40
2018-05-21T05:26:38.515Z,21.42
2018-05-21T05:29:06.131Z,21.41
2018-05-21T05:31:40.375Z,21.48
2018-05-21T05:34:07.948Z,21.46
2018-05-21T05:36:35.652Z,21.40
2018-05-21T05:39:03.499Z,21.35
2018-05-21T05:41:31.243Z,21.34
2018-05-21T05:43:59.876Z,21.32
2018-05-21T05:46:31.476Z,21.22
2018-05-21T05:49:11.644Z,21.30
2018-05-21T05:51:40.267Z,21.22
2018-05-21T05:54:10.952Z,21.09
2018-05-21T05:56:38.644Z,20.98
2018-05-21T05:59:06.504Z,21.01
2018-05-21T06:01:34.370Z,21.00
2018-05-21T06:04:02.049Z,20.74
2018-05-21T06:06:33.896Z,20.89
2018-05-21T06:09:01.662Z,20.89
2018-05-21T06:11:35.505Z,21.00
2018-05-21T06:14:06.440Z,21.10
2018-05-21T06:16:34.048Z,21.04
2018-05-21T06:19:05.409Z,21.15
2018-05-21T06:21:36.141Z,21.23
2018-05-21T06:24:03.784Z,21.30
2018-05-21T06:26:31.616Z,20.89
2018-05-21T06:28:59.310Z,21.08
2018-05-21T06:31:27.009Z,21.33
2018-05-21T06:34:01.898Z,21.34
2018-05-21T06:36:29.645Z,21.45
2018-05-21T06:39:00.767Z,21.59
2018-05-21T06:41:28.953Z,21.59
2018-05-21T06:43:56.586Z,21.54
2018-05-21T06:46:30.208Z,21.62
2018-05-21T06:48:57.807Z,21.75
2018-05-21T06:51:33.892Z,21.85
2018-05-21T06:54:01.521Z,21.92
2018-05-21T06:56:29.166Z,22.08
2018-05-21T06:59:03.019Z,22.16
2018-05-21T07:01:36.810Z,22.32
2018-05-21T07:04:28.041Z,22.22
2018-05-21T07:07:08.396Z,22.22
2018-05-21T07:09:36.050Z,22.22
2018-05-21T07:12:07.594Z,22.18
2018-05-21T07:14:41.008Z,22.03
2018-05-21T07:17:11.853Z,21.72
2018-05-21T07:19:39.561Z,21.92
2018-05-21T07:22:08.409Z,22.25
2018-05-21T07:24:36.078Z,22.42
2018-05-21T07:27:03.757Z,21.94
2018-05-21T07:29:31.412Z,22.10
2018-05-21T07:31:59.083Z,22.78
2018-05-21T07:34:27.733Z,23.06
2018-05-21T07:36:55.441Z,22.98
2018-05-21T07:39:26.123Z,23.23
2018-05-21T07:41:53.749Z,23.38
2018-05-21T07:44:23.335Z,23.48
2018-05-21T07:46:54.435Z,23.55
2018-05-21T07:49:22.062Z,24.03
2018-05-21T07:51:49.758Z,24.12
2018-05-21T07:54:17.372Z,23.87
2018-05-21T07:56:45.009Z,24.10
2018-05-21T07:59:12.873Z,23.95
2018-05-21T08:01:40.542Z,23.60
2018-05-21T08:04:08.174Z,24.29
2018-05-21T08:06:35.936Z,24.65
2018-05-21T08:09:03.676Z,24.78
2018-05-21T08:11:31.402Z,24.36
2018-05-21T08:13:59.235Z,24.84
2018-05-21T08:16:26.962Z,24.76
2018-05-21T08:18:54.687Z,25.18
2018-05-21T08:21:22.722Z,25.27
2018-05-21T08:23:50.315Z,25.19
2018-05-21T08:26:17.965Z,25.09
2018-05-21T08:28:45.678Z,25.13
2018-05-21T08:31:19.552Z,24.52
2018-05-21T08:33:48.304Z,24.75
2018-05-21T08:36:16.034Z,24.44
2018-05-21T08:38:43.656Z,25.00
2018-05-21T08:41:11.467Z,25.34
2018-05-21T08:43:39.225Z,25.50
2018-05-21T08:46:06.988Z,26.11
2018-05-21T08:48:35.109Z,26.50
2018-05-21T08:51:03.698Z,26.69
2018-05-21T08:53:31.596Z,26.55
2018-05-21T08:55:59.475Z,26.37
2018-05-21T08:58:27.196Z,26.36
2018-05-21T09:00:54.918Z,26.28
2018-05-21T09:03:26.079Z,26.45
2018-05-21T09:05:56.977Z,26.71
2018-05-21T09:08:24.721Z,26.57
2018-05-21T09:10:52.618Z,27.12
2018-05-21T09:13:20.643Z,27.53
2018-05-21T09:15:48.393Z,27.93
2018-05-21T09:18:20.186Z,28.09
2018-05-21T09:20:47.808Z,28.23
2018-05-21T09:23:15.459Z,26.89
2018-05-21T09:25:43.115Z,26.44
2018-05-21T09:28:10.734Z,26.12
2018-05-21T09:30:38.384Z,25.92
2018-05-21T09:33:06.173Z,25.91
2018-05-21T09:35:40.836Z,26.16
2018-05-21T09:38:09.131Z,27.07
2018-05-21T09:43:36.541Z,28.38
2018-05-21T09:46:08.157Z,28.72
2018-05-21T09:48:37.096Z,29.12
2018-05-21T09:51:05.971Z,28.24
2018-05-21T09:53:34.118Z,28.19
2018-05-21T09:56:01.885Z,27.44
2018-05-21T09:58:30.657Z,27.49
2018-05-21T10:00:59.618Z,28.20
2018-05-21T10:03:29.536Z,28.76
2018-05-21T10:05:57.575Z,27.32
2018-05-21T10:11:10.564Z,26.13
2018-05-21T10:13:38.244Z,25.52
2018-05-21T10:16:07.389Z,25.56
2018-05-21T10:18:35.253Z,25.64
2018-05-21T10:21:02.948Z,25.88
2018-05-21T10:23:31.661Z,26.59
2018-05-21T10:25:59.397Z,26.81
2018-05-21T10:28:26.964Z,26.77
2018-05-21T10:30:58.029Z,27.42
2018-05-21T10:33:26.263Z,27.25
2018-05-21T10:35:54.028Z,27.81
2018-05-21T10:38:22.732Z,28.34
2018-05-21T10:40:53.754Z,26.99
2018-05-21T10:43:21.422Z,25.58
2018-05-21T10:45:49.122Z,25.97
2018-05-21T10:48:16.933Z,25.93
2018-05-21T10:50:44.639Z,26.36
2018-05-21T10:53:12.283Z,26.23
2018-05-21T10:55:40.138Z,26.72
2018-05-21T10:58:07.841Z,27.32
2018-05-21T11:00:35.493Z,27.70
2018-05-21T11:03:08.241Z,26.27
2018-05-21T11:05:35.949Z,26.88
2018-05-21T11:08:03.586Z,26.38
2018-05-21T11:10:31.414Z,26.10
2018-05-21T11:12:59.072Z,26.41
2018-05-21T11:15:26.797Z,27.08
2018-05-21T11:17:55.893Z,27.64
2018-05-21T11:20:24.573Z,27.32
2018-05-21T11:22:58.995Z,27.30
2018-05-21T11:25:27.609Z,27.22
2018-05-21T11:27:55.271Z,26.45
2018-05-21T11:30:23.440Z,27.03
2018-05-21T11:32:52.554Z,27.66
2018-05-21T11:35:35.528Z,27.51
2018-05-21T11:38:10.240Z,28.24
2018-05-21T11:40:38.153Z,28.73
2018-05-21T11:43:05.827Z,27.84
2018-05-21T11:45:33.463Z,27.74
2018-05-21T11:48:01.630Z,28.25
2018-05-21T11:50:29.183Z,28.60
2018-05-21T11:53:09.317Z,29.02
2018-05-21T11:58:14.797Z,30.01
2018-05-21T12:00:48.159Z,29.79
2018-05-21T12:03:15.894Z,28.23
2018-05-21T12:05:43.539Z,27.21
2018-05-21T12:08:18.429Z,27.50
2018-05-21T12:10:46.104Z,27.84
2018-05-21T12:13:13.833Z,27.76
2018-05-21T12:15:45.961Z,28.12
2018-05-21T12:18:17.881Z,27.94
2018-05-21T12:20:47.649Z,27.55
2018-05-21T12:23:15.227Z,27.06
2018-05-21T12:25:47.023Z,27.11
2018-05-21T12:28:15.084Z,27.26
2018-05-21T12:30:42.825Z,27.55
2018-05-21T12:33:18.496Z,28.17
2018-05-21T12:35:46.094Z,28.76
2018-05-21T12:38:14.773Z,27.85
2018-05-21T12:40:44.510Z,28.71
2018-05-21T12:43:12.068Z,29.27
2018-05-21T12:45:39.750Z,29.55
2018-05-21T12:48:07.418Z,28.97
2018-05-21T12:50:35.108Z,28.93
2018-05-21T12:53:03.548Z,29.25
2018-05-21T12:55:37.595Z,28.97
2018-05-21T12:58:14.487Z,29.38
2018-05-21T13:00:45.834Z,29.32
2018-05-21T13:03:19.467Z,28.46
2018-05-21T13:05:47.150Z,27.94
2018-05-21T13:08:14.745Z,27.81
2018-05-21T13:10:42.319Z,27.60
2018-05-21T13:13:10.080Z,28.15
2018-05-21T13:15:41.590Z,28.61
2018-05-21T13:18:09.282Z,28.91
2018-05-21T13:20:37.031Z,29.03
2018-05-21T13:23:04.656Z,29.02
2018-05-21T13:25:35.555Z,28.94
2018-05-21T13:28:09.156Z,29.25
2018-05-21T13:30:40.895Z,29.46
2018-05-21T13:33:15.955Z,29.50
2018-05-21T13:35:43.680Z,29.38
2018-05-21T13:38:12.812Z,29.09
2018-05-21T13:40:40.574Z,28.98
2018-05-21T13:43:08.413Z,28.99
2018-05-21T13:45:36.555Z,28.95
2018-05-21T13:48:29.833Z,28.57
2018-05-21T13:50:57.585Z,28.17
2018-05-21T13:53:37.861Z,28.22
2018-05-21T13:56:06.534Z,28.24
2018-05-21T13:58:35.182Z,28.48
2018-05-21T14:01:06.872Z,28.81
2018-05-21T14:06:29.169Z,28.75
2018-05-21T14:08:56.818Z,28.41
2018-05-21T14:11:24.474Z,27.90
2018-05-21T14:13:52.157Z,27.97
2018-05-21T14:16:20.966Z,28.04
2018-05-21T14:18:58.621Z,28.09
2018-05-21T14:21:31.229Z,28.22
2018-05-21T14:24:07.138Z,28.32
2018-05-21T14:26:34.943Z,28.40
2018-05-21T14:29:16.866Z,28.26
2018-05-21T14:31:44.744Z,28.36
2018-05-21T14:34:23.690Z,28.33
2018-05-21T14:36:51.376Z,28.35
2018-05-21T14:39:19.301Z,28.37
2018-05-21T14:41:47.363Z,28.03
2018-05-21T14:44:15.058Z,28.13
2018-05-21T14:46:51.664Z,28.14
2018-05-21T14:49:19.353Z,28.13
2018-05-21T14:51:46.994Z,27.96
2018-05-21T14:54:15.044Z,28.33
2018-05-21T14:56:42.800Z,28.55
2018-05-21T14:59:17.023Z,27.94
2018-05-21T15:01:44.625Z,27.57
2018-05-21T15:04:13.351Z,26.98
2018-05-21T15:06:41.216Z,26.83
2018-05-21T15:09:08.783Z,26.72
2018-05-21T15:11:36.442Z,26.81
2018-05-21T15:14:04.536Z,26.93
2018-05-21T15:16:32.180Z,26.85
2018-05-21T15:18:59.839Z,26.42
2018-05-21T15:21:27.654Z,26.41
2018-05-21T15:23:55.365Z,26.46
2018-05-21T15:26:23.055Z,26.41
2018-05-21T15:28:55.396Z,26.48
2018-05-21T15:31:23.042Z,26.44
2018-05-21T15:33:50.663Z,26.19
2018-05-21T15:36:18.537Z,26.24
2018-05-21T15:38:46.208Z,26.16
2018-05-21T15:41:13.880Z,26.05
2018-05-21T15:43:42.594Z,25.94
2018-05-21T15:46:10.222Z,25.76
2018-05-21T15:48:37.931Z,25.64
2018-05-21T15:51:05.583Z,25.72
2018-05-21T15:53:33.170Z,25.63
2018-05-21T15:56:00.878Z,25.51
2018-05-21T15:58:28.574Z,25.40
2018-05-21T16:00:56.322Z,25.26
2018-05-21T16:03:24.257Z,25.13
2018-05-21T16:05:52.461Z,25.07
2018-05-21T16:08:20.207Z,24.85
2018-05-21T16:10:47.823Z,24.95
2018-05-21T16:13:15.469Z,24.90
2018-05-21T16:15:43.638Z,24.92
2018-05-21T16:18:11.227Z,24.75
2018-05-21T16:20:38.899Z,24.74
2018-05-21T16:23:06.831Z,24.79
2018-05-21T16:25:34.420Z,24.81
2018-05-21T16:28:02.031Z,24.80
2018-05-21T16:30:29.742Z,24.72
2018-05-21T16:32:57.385Z,24.77
2018-05-21T16:35:25.102Z,24.74
2018-05-21T16:37:52.823Z,24.66
2018-05-21T16:40:20.412Z,24.63
2018-05-21T16:42:47.999Z,24.60
2018-05-21T16:45:15.737Z,24.55
2018-05-21T16:47:43.603Z,24.44
2018-05-21T16:50:11.157Z,24.31
2018-05-21T16:52:39.048Z,24.30
2018-05-21T16:55:06.731Z,23.92
2018-05-21T16:57:34.379Z,24.02
2018-05-21T17:00:02.067Z,24.04
2018-05-21T17:02:29.660Z,23.79
2018-05-21T17:04:57.315Z,23.88
2018-05-21T17:07:25.221Z,23.90
2018-05-21T17:09:52.903Z,23.91
2018-05-21T17:12:20.554Z,23.97
2018-05-21T17:14:48.386Z,23.93
2018-05-21T17:17:16.074Z,23.97
2018-05-21T17:19:43.768Z,23.94
2018-05-21T17:22:11.429Z,23.92
2018-05-21T17:24:39.045Z,23.94
2018-05-21T17:27:06.737Z,23.93
2018-05-21T17:29:34.397Z,23.73
2018-05-21T17:32:02.036Z,23.71
2018-05-21T17:34:29.710Z,23.66
2018-05-21T17:36:57.861Z,23.59
2018-05-21T17:39:25.548Z,23.61
2018-05-21T17:41:53.288Z,23.66
2018-05-21T17:44:21.108Z,23.62
2018-05-21T17:46:48.772Z,23.40
2018-05-21T17:49:16.434Z,23.27
2018-05-21T17:51:44.190Z,23.09
2018-05-21T17:54:11.818Z,22.88
2018-05-21T17:56:39.436Z,22.65
2018-05-21T17:59:07.128Z,22.59
2018-05-21T18:01:34.771Z,22.47
2018-05-21T18:04:02.429Z,22.41
2018-05-21T18:06:30.127Z,22.42
2018-05-21T18:08:57.801Z,22.68
2018-05-21T18:11:25.361Z,22.73
2018-05-21T18:13:53.119Z,22.85
2018-05-21T18:16:20.807Z,22.90
2018-05-21T18:18:48.552Z,22.86
2018-05-21T18:21:16.477Z,22.84
2018-05-21T18:23:45.015Z,22.70
2018-05-21T18:26:12.945Z,22.53
2018-05-21T18:28:41.048Z,22.52
2018-05-21T18:31:08.625Z,22.51
2018-05-21T18:33:36.342Z,22.47
2018-05-21T18:36:04.161Z,22.32
2018-05-21T18:38:31.814Z,22.23
2018-05-21T18:40:59.487Z,22.27
2018-05-21T18:43:27.760Z,22.12
2018-05-21T18:45:55.376Z,22.05
2018-05-21T18:48:23.090Z,21.98
2018-05-21T18:50:51.216Z,22.07
2018-05-21T18:53:20.896Z,21.98
2018-05-21T18:55:48.481Z,21.71
2018-05-21T18:58:16.304Z,21.65
2018-05-21T19:00:43.899Z,21.71
2018-05-21T19:03:11.499Z,21.82
2018-05-21T19:05:39.236Z,21.70
2018-05-21T19:08:06.834Z,21.65
2018-05-21T19:10:34.495Z,21.62
2018-05-21T19:13:02.169Z,21.64
2018-05-21T19:15:29.800Z,21.65
2018-05-21T19:17:57.484Z,21.74
2018-05-21T19:20:25.180Z,21.64
2018-05-21T19:22:52.767Z,21.58
2018-05-21T19:25:20.556Z,21.31
2018-05-21T19:27:48.358Z,21.24
2018-05-21T19:30:16.582Z,21.19
2018-05-21T19:32:44.258Z,21.27
2018-05-21T19:35:11.982Z,21.31
2018-05-21T19:37:39.600Z,21.23
2018-05-21T19:40:07.212Z,20.97
2018-05-21T19:42:35.229Z,21.06
2018-05-21T19:45:02.973Z,20.97
2018-05-21T19:47:30.608Z,20.81
2018-05-21T19:49:58.497Z,20.56
2018-05-21T19:52:26.191Z,20.33
2018-05-21T19:54:53.807Z,20.24
2018-05-21T19:57:21.487Z,20.22
2018-05-21T19:59:55.400Z,20.12
2018-05-21T20:02:29.417Z,20.02
2018-05-21T20:05:04.440Z,19.91
2018-05-21T20:07:32.428Z,19.89
2018-05-21T20:10:01.161Z,19.85
2018-05-21T20:12:29.786Z,19.72
2018-05-21T20:14:57.546Z,19.60
2018-05-21T20:17:25.340Z,19.49
2018-05-21T20:19:52.987Z,19.43
2018-05-21T20:22:20.635Z,19.40
2018-05-21T20:24:48.236Z,19.45
2018-05-21T20:27:15.950Z,19.29
2018-05-21T20:29:43.569Z,19.14
2018-05-21T20:32:11.276Z,19.16
2018-05-21T20:34:39.023Z,19.10
2018-05-21T20:37:06.737Z,19.16
2018-05-21T20:39:34.401Z,19.15
2018-05-21T20:42:02.563Z,19.07
2018-05-21T20:44:30.155Z,19.05
2018-05-21T20:46:57.780Z,18.96
2018-05-21T20:49:25.872Z,18.98
2018-05-21T20:51:53.503Z,19.00
2018-05-21T20:54:21.190Z,19.02
2018-05-21T20:56:48.877Z,18.83
2018-05-21T20:59:16.528Z,18.97
2018-05-21T21:01:44.156Z,18.88
2018-05-21T21:04:11.990Z,18.97
2018-05-21T21:06:39.648Z,18.92
2018-05-21T21:09:07.328Z,18.75
2018-05-21T21:11:35.162Z,18.79
2018-05-21T21:14:02.892Z,18.73
2018-05-21T21:16:30.641Z,18.68
2018-05-21T21:18:58.468Z,18.79
2018-05-21T21:21:26.092Z,18.93
2018-05-21T21:23:53.876Z,18.87
2018-05-21T21:26:21.819Z,18.73
2018-05-21T21:28:54.337Z,18.70
2018-05-21T21:31:22.016Z,18.60
2018-05-21T21:33:49.642Z,18.70
2018-05-21T21:36:17.281Z,18.71
2018-05-21T21:38:45.105Z,18.60
2018-05-21T21:41:12.839Z,18.63
2018-05-21T21:43:40.481Z,18.67
2018-05-21T21:46:08.317Z,18.62
2018-05-21T21:48:36.007Z,18.77
2018-05-21T21:51:03.648Z,18.57
2018-05-21T21:53:31.843Z,18.66
2018-05-21T21:55:59.431Z,18.42
2018-05-21T21:58:27.096Z,18.54
2018-05-21T22:01:01.173Z,18.56
2018-05-21T22:03:35.101Z,18.37
2018-05-21T22:06:02.770Z,18.50
2018-05-21T22:08:30.396Z,18.33
2018-05-21T22:10:58.091Z,18.16
2018-05-21T22:13:25.751Z,18.31
2018-05-21T22:15:53.356Z,18.34
2018-05-21T22:18:21.054Z,18.57
2018-05-21T22:20:48.714Z,18.60
2018-05-21T22:23:16.362Z,18.63
2018-05-21T22:25:44.033Z,18.58
2018-05-21T22:28:14.995Z,18.64
2018-05-21T22:30:42.601Z,18.42
2018-05-21T22:33:11.317Z,18.52
2018-05-21T22:35:38.979Z,18.44
2018-05-21T22:38:06.620Z,18.43
2018-05-21T22:40:35.322Z,18.48
2018-05-21T22:43:03.120Z,18.52
2018-05-21T22:45:30.955Z,18.40
2018-05-21T22:47:59.634Z,18.48
2018-05-21T22:50:27.584Z,18.54
2018-05-21T22:52:55.354Z,18.51
2018-05-21T22:55:23.092Z,18.49
2018-05-21T22:57:50.746Z,18.50
2018-05-21T23:00:18.411Z,18.45
2018-05-21T23:05:20.213Z,18.29
2018-05-21T23:07:47.915Z,18.14
2018-05-21T23:10:15.598Z,18.07
2018-05-21T23:12:43.497Z,18.14
2018-05-21T23:15:11.103Z,17.93
2018-05-21T23:17:38.778Z,17.87
2018-05-21T23:20:06.585Z,17.99
2018-05-21T23:22:45.115Z,17.98
2018-05-21T23:25:12.817Z,18.05
2018-05-21T23:27:40.876Z,18.15
2018-05-21T23:30:08.528Z,18.20
2018-05-21T23:32:36.380Z,18.11
2018-05-21T23:35:04.070Z,18.10
2018-05-21T23:37:35.199Z,17.93
2018-05-21T23:40:03.008Z,17.85
2018-05-21T23:42:30.706Z,17.68
2018-05-21T23:44:58.371Z,17.67
2018-05-21T23:47:26.558Z,17.56
2018-05-21T23:49:54.159Z,17.56
2018-05-21T23:52:21.787Z,17.60
2018-05-21T23:54:49.452Z,17.77
2018-05-21T23:57:17.084Z,17.82
2018-05-21T23:59:44.734Z,17.95
